Rago, Kansas
Current Conditions -  °F | °C
As of 12:53 PM on Friday 21 Nov 2014 (Local Time) from KICT Reporting Station
Drizzle Drizzle  
Wind Chill: 41°   Ceiling: 200
Heat Index: 41°   Visibility: 0.12mi
Dew Point: 40°   Wind: 3mph
Humidity: 96%   Direction: 130°SE
Pressure: 30.06"   Gusts: NA
Location:  37.45°N, 98.08°W
Report Text: KICT 211853Z 13003KT 1/8SM R01L/1400FT -DZ FG VV002 05/04 A3006 RMK AO2 SLP186 P0000 T00500044
Loading
Personal Weather Stations






























Interactive Weather Map New forecast layout! Learn more

10-Day Weather Forecast

Advertisements
Track Severe Weather on mobile